createdAt,value
2022-12-23T00:04:36.051Z,98787.48
2022-12-23T00:09:38.757Z,98791.98
2022-12-23T00:15:00.238Z,98798.56
2022-12-23T00:20:04.368Z,98804.52
2022-12-23T00:25:07.381Z,98807.11
2022-12-23T00:30:11.027Z,98805.30
2022-12-23T00:35:13.842Z,98813.47
2022-12-23T00:40:35.486Z,98809.18
2022-12-23T00:45:38.314Z,98814.54
2022-12-23T00:50:41.051Z,98818.47
2022-12-23T00:55:47.817Z,98821.55
2022-12-23T01:01:11.817Z,98824.56
2022-12-23T01:06:15.074Z,98828.04
2022-12-23T01:11:17.712Z,98827.98
2022-12-23T01:16:20.542Z,98821.70
2022-12-23T01:21:23.617Z,98823.96
2022-12-23T01:26:27.111Z,98824.32
2022-12-23T01:31:29.971Z,98831.15
2022-12-23T01:36:32.979Z,98832.16
2022-12-23T01:41:54.635Z,98841.80
2022-12-23T01:46:57.362Z,98853.10
2022-12-23T01:52:00.211Z,98855.68
2022-12-23T01:57:03.012Z,98862.05
2022-12-23T02:02:24.570Z,98863.88
2022-12-23T02:07:47.141Z,98869.73
2022-12-23T02:13:04.919Z,98867.90
2022-12-23T02:18:46.354Z,98867.05
2022-12-23T02:24:01.312Z,98862.27
2022-12-23T02:29:22.305Z,98864.92
2022-12-23T02:34:30.773Z,98867.91
2022-12-23T02:40:01.503Z,98875.14
2022-12-23T02:45:17.839Z,98882.59
2022-12-23T02:50:28.036Z,98876.02
2022-12-23T02:55:35.946Z,98878.13
2022-12-23T03:00:41.328Z,98882.41
2022-12-23T03:05:46.964Z,98885.52
2022-12-23T03:11:12.110Z,98891.90
2022-12-23T03:16:24.403Z,98891.39
2022-12-23T03:21:37.786Z,98887.06
2022-12-23T03:27:05.026Z,98880.53
2022-12-23T03:32:08.645Z,98884.25
2022-12-23T03:37:14.436Z,98883.27
2022-12-23T03:42:29.829Z,98879.52
2022-12-23T03:47:38.670Z,98879.43
2022-12-23T03:52:59.853Z,98885.61
2022-12-23T03:58:17.228Z,98884.05
2022-12-23T04:03:34.992Z,98897.75
2022-12-23T04:08:39.672Z,98901.27
2022-12-23T04:13:42.441Z,98906.70
2022-12-23T04:18:45.142Z,98896.77
2022-12-23T04:23:47.856Z,98883.61
2022-12-23T04:28:50.524Z,98877.60
2022-12-23T04:33:53.221Z,98884.66
2022-12-23T04:38:55.943Z,98890.45
2022-12-23T04:43:58.676Z,98897.77
2022-12-23T04:49:01.396Z,98892.62
2022-12-23T04:54:04.197Z,98893.39
2022-12-23T04:59:06.897Z,98901.48
2022-12-23T05:04:10.173Z,98909.39
2022-12-23T05:09:12.808Z,98907.67
2022-12-23T05:14:15.492Z,98896.95
2022-12-23T05:19:18.229Z,98893.59
2022-12-23T05:24:20.963Z,98890.10
2022-12-23T05:29:23.831Z,98899.25
2022-12-23T05:34:26.620Z,98908.90
2022-12-23T05:39:29.569Z,98918.72
2022-12-23T05:44:32.383Z,98917.42
2022-12-23T05:49:35.095Z,98914.25
2022-12-23T05:54:37.809Z,98913.16
2022-12-23T05:59:40.550Z,98910.58
2022-12-23T06:04:43.289Z,98917.32
2022-12-23T06:09:45.984Z,98926.07
2022-12-23T06:14:48.684Z,98914.23
2022-12-23T06:19:51.480Z,98918.91
2022-12-23T06:24:54.151Z,98937.12
2022-12-23T06:29:57.094Z,98951.67
2022-12-23T06:34:59.776Z,98945.67
2022-12-23T06:40:02.652Z,98961.92
2022-12-23T06:45:05.882Z,98962.16
2022-12-23T06:50:09.244Z,98955.84
2022-12-23T06:55:12.647Z,98963.62
2022-12-23T07:00:16.272Z,98967.95
2022-12-23T07:05:19.022Z,98967.76
2022-12-23T07:10:21.735Z,98972.73
2022-12-23T07:15:24.467Z,98977.45
2022-12-23T07:20:29.416Z,98975.73
2022-12-23T07:25:32.122Z,98975.32
2022-12-23T07:30:35.455Z,98974.67
2022-12-23T07:35:38.297Z,98975.89
2022-12-23T07:40:41.253Z,98978.88
2022-12-23T07:45:44.054Z,98982.02
2022-12-23T07:50:46.795Z,98980.61
2022-12-23T07:55:56.434Z,98982.98
2022-12-23T08:01:01.533Z,98996.55
2022-12-23T08:06:12.366Z,98990.15
2022-12-23T08:11:16.012Z,98987.02
2022-12-23T08:16:19.425Z,98979.71
2022-12-23T08:21:22.311Z,98978.58
2022-12-23T08:26:25.253Z,98979.79
2022-12-23T08:31:33.666Z,98984.42
2022-12-23T08:36:36.798Z,98987.51
2022-12-23T08:41:42.318Z,98996.09
2022-12-23T08:46:45.668Z,98990.34
2022-12-23T08:51:48.830Z,98997.84
2022-12-23T08:56:51.570Z,98998.36
2022-12-23T09:01:54.430Z,98988.98
2022-12-23T09:06:57.269Z,98996.46
2022-12-23T09:12:00.019Z,98999.73
2022-12-23T09:17:02.721Z,99003.38
2022-12-23T09:22:05.435Z,98994.96
2022-12-23T09:27:08.254Z,98998.96
2022-12-23T09:32:11.129Z,98999.86
2022-12-23T09:37:16.717Z,99005.04
2022-12-23T09:42:30.220Z,99008.52
2022-12-23T09:47:34.174Z,99000.54
2022-12-23T09:52:50.419Z,98997.40
2022-12-23T09:58:01.183Z,98999.70
2022-12-23T10:03:27.165Z,98996.02
2022-12-23T10:08:29.894Z,98994.91
2022-12-23T10:13:38.405Z,98990.80
2022-12-23T10:18:45.003Z,98983.30
2022-12-23T10:23:52.744Z,98978.79
2022-12-23T10:29:18.701Z,98976.84
2022-12-23T10:35:51.301Z,98963.52
2022-12-23T10:40:49.167Z,98963.27
2022-12-23T10:46:03.067Z,98959.77
2022-12-23T10:51:23.095Z,98958.06
2022-12-23T10:56:28.781Z,98947.25
2022-12-23T11:01:32.347Z,98939.20
2022-12-23T11:06:40.974Z,98945.25
2022-12-23T11:12:04.939Z,98936.12
2022-12-23T11:17:29.134Z,98934.09
2022-12-23T11:22:31.866Z,98933.41
2022-12-23T11:27:35.092Z,98914.72
2022-12-23T11:32:37.820Z,98915.19
2022-12-23T11:37:43.053Z,98918.01
2022-12-23T11:42:53.382Z,98922.88
2022-12-23T11:47:57.968Z,98919.38
2022-12-23T11:53:09.712Z,98914.17
2022-12-23T11:58:19.672Z,98917.69
2022-12-23T12:03:27.979Z,98935.25
2022-12-23T12:08:35.587Z,98944.16
2022-12-23T12:13:43.592Z,98953.64
2022-12-23T12:18:53.664Z,98955.98
2022-12-23T12:24:19.528Z,98965.94
2022-12-23T12:29:45.818Z,98953.52
2022-12-23T12:34:57.099Z,98960.43
2022-12-23T12:40:04.095Z,98958.19
2022-12-23T12:45:12.860Z,98965.59
2022-12-23T12:50:23.579Z,98956.38
2022-12-23T12:55:29.918Z,98951.77
2022-12-23T13:00:45.576Z,98946.52
2022-12-23T13:06:00.587Z,98947.81
2022-12-23T13:11:14.134Z,98956.34
2022-12-23T13:16:16.766Z,98951.86
2022-12-23T13:22:07.241Z,98963.04
2022-12-23T13:27:19.298Z,98945.98
2022-12-23T13:32:37.541Z,98945.79
2022-12-23T13:37:59.272Z,98942.88
2022-12-23T13:43:19.311Z,98938.34
2022-12-23T13:48:44.216Z,98940.38
2022-12-23T13:54:12.219Z,98947.59
2022-12-23T13:59:16.468Z,98941.22
2022-12-23T14:04:35.824Z,98945.30
2022-12-23T14:09:39.300Z,98949.48
2022-12-23T14:14:59.642Z,98946.16
2022-12-23T14:20:27.410Z,98945.13
2022-12-23T14:26:16.597Z,98944.23
2022-12-23T14:31:34.971Z,98941.00
2022-12-23T14:36:37.834Z,98945.70
2022-12-23T14:41:52.907Z,98938.48
2022-12-23T14:46:57.370Z,98942.17
2022-12-23T14:52:46.497Z,98942.95
2022-12-23T14:57:57.212Z,98950.38
2022-12-23T15:03:01.523Z,98959.27
2022-12-23T15:08:05.189Z,98959.41
2022-12-23T15:13:17.098Z,98957.77
2022-12-23T15:18:20.159Z,98964.90
2022-12-23T15:23:22.862Z,98969.98
2022-12-23T15:28:36.260Z,98971.09
2022-12-23T15:39:09.780Z,98969.53
2022-12-23T15:44:23.505Z,98977.71
2022-12-23T15:49:26.340Z,98987.06
2022-12-23T15:54:35.439Z,98990.81
2022-12-23T15:59:39.266Z,98987.48
2022-12-23T16:04:42.258Z,98976.52
2022-12-23T16:09:44.929Z,98976.13
2022-12-23T16:15:00.573Z,98976.48
2022-12-23T16:20:15.755Z,98975.54
2022-12-23T16:25:32.005Z,98981.70
2022-12-23T16:30:41.919Z,98982.61
2022-12-23T16:35:44.646Z,98971.80
2022-12-23T16:40:53.931Z,98969.56
2022-12-23T16:45:58.060Z,98970.05
2022-12-23T16:51:03.505Z,98974.77
2022-12-23T16:56:18.452Z,98975.30
2022-12-23T17:01:24.058Z,98979.99
2022-12-23T17:06:27.291Z,98989.11
2022-12-23T17:11:37.356Z,98994.64
2022-12-23T17:16:40.217Z,98991.95
2022-12-23T17:21:46.053Z,98989.56
2022-12-23T17:26:49.122Z,98993.29
2022-12-23T17:31:52.079Z,98990.30
2022-12-23T17:36:54.931Z,98988.55
2022-12-23T17:41:57.663Z,98998.70
2022-12-23T17:47:01.083Z,99005.05
2022-12-23T17:52:06.784Z,98995.13
2022-12-23T17:57:18.157Z,98978.64
2022-12-23T18:02:22.143Z,98976.48
2022-12-23T18:07:26.175Z,98976.31
2022-12-23T18:12:38.155Z,98977.69
2022-12-23T18:17:40.866Z,98984.21
2022-12-23T18:22:45.865Z,98993.40
2022-12-23T18:27:49.223Z,98989.88
2022-12-23T18:32:51.885Z,98994.33
2022-12-23T18:37:55.670Z,99004.73
2022-12-23T18:42:58.366Z,99004.52
2022-12-23T18:48:03.048Z,99004.48
2022-12-23T18:53:07.574Z,99008.52
2022-12-23T18:58:13.166Z,99016.40
2022-12-23T19:03:25.571Z,99012.89
2022-12-23T19:08:28.272Z,99016.47
2022-12-23T19:13:30.995Z,99017.09
2022-12-23T19:18:33.728Z,99021.11
2022-12-23T19:23:37.303Z,99032.06
2022-12-23T19:28:44.256Z,99034.58
2022-12-23T19:33:47.280Z,99037.02
2022-12-23T19:38:50.687Z,99043.34
2022-12-23T19:43:53.422Z,99050.52
2022-12-23T19:48:56.201Z,99043.84
2022-12-23T19:53:58.928Z,99043.48
2022-12-23T19:59:02.463Z,99042.36
2022-12-23T20:04:05.178Z,99043.67
2022-12-23T20:09:11.457Z,99047.29
2022-12-23T20:14:17.121Z,99040.16
2022-12-23T20:19:20.275Z,99044.15
2022-12-23T20:24:23.100Z,99043.02
2022-12-23T20:29:25.871Z,99046.41
2022-12-23T20:34:30.830Z,99052.44
2022-12-23T20:39:37.581Z,99055.71
2022-12-23T20:44:40.272Z,99062.59
2022-12-23T20:49:42.972Z,99063.56
2022-12-23T20:54:45.681Z,99066.23
2022-12-23T20:59:48.360Z,99068.92
2022-12-23T21:04:51.115Z,99075.18
2022-12-23T21:09:53.867Z,99076.42
2022-12-23T21:14:56.540Z,99082.70
2022-12-23T21:20:06.948Z,99098.64
2022-12-23T21:25:10.692Z,99105.56
2022-12-23T21:30:13.721Z,99114.16
2022-12-23T21:35:16.472Z,99131.95
2022-12-23T21:40:19.289Z,99144.48
2022-12-23T21:45:22.031Z,99146.81
2022-12-23T21:50:24.831Z,99151.08
2022-12-23T21:55:27.537Z,99155.75
2022-12-23T22:00:30.361Z,99152.42
2022-12-23T22:05:33.104Z,99148.40
2022-12-23T22:10:38.442Z,99153.48
2022-12-23T22:15:42.959Z,99164.24
2022-12-23T22:20:46.522Z,99170.87
2022-12-23T22:25:54.499Z,99171.79
2022-12-23T22:31:12.590Z,99162.45
2022-12-23T22:36:16.774Z,99160.58
2022-12-23T22:41:19.897Z,99174.39
2022-12-23T22:46:24.550Z,99190.15
2022-12-23T22:51:30.088Z,99194.10
2022-12-23T22:56:32.852Z,99185.23
2022-12-23T23:01:36.696Z,99174.76
2022-12-23T23:06:39.453Z,99179.06
2022-12-23T23:11:44.341Z,99183.74
2022-12-23T23:16:47.488Z,99183.45
2022-12-23T23:21:50.239Z,99180.20
2022-12-23T23:26:52.945Z,99188.31
2022-12-23T23:31:55.668Z,99182.35
2022-12-23T23:36:58.494Z,99192.94
2022-12-23T23:42:01.229Z,99203.73
2022-12-23T23:47:04.082Z,99198.40
2022-12-23T23:52:06.758Z,99191.92
2022-12-23T23:57:10.484Z,99200.84
